createdAt,value
2018-12-22T16:11:39.258Z,10.28
2018-12-22T16:12:39.038Z,10.25
2018-12-22T16:13:39.095Z,10.20
2018-12-22T16:14:39.147Z,10.26
2018-12-22T16:15:39.202Z,10.20
2018-12-22T16:16:39.271Z,10.16
2018-12-22T16:17:39.331Z,10.19
2018-12-22T16:18:39.375Z,10.12
2018-12-22T16:19:39.435Z,10.09
2018-12-22T16:20:39.495Z,10.23
2018-12-22T16:21:39.559Z,10.19
2018-12-22T16:22:39.619Z,10.25
2018-12-22T16:23:39.671Z,10.17
2018-12-22T16:24:39.731Z,10.12
2018-12-22T16:25:39.795Z,10.05
2018-12-22T16:26:39.860Z,10.13
2018-12-22T16:27:39.924Z,10.02
2018-12-22T16:28:39.971Z,10.02
2018-12-22T16:29:40.037Z,10.05
2018-12-22T16:30:40.101Z,9.87
2018-12-22T16:31:40.155Z,9.92
2018-12-22T16:32:41.430Z,9.92
2018-12-22T16:33:40.282Z,9.91
2018-12-22T16:34:40.340Z,9.84
2018-12-22T16:35:40.400Z,9.83
2018-12-22T16:36:40.463Z,9.73
2018-12-22T16:37:40.524Z,9.68
2018-12-22T16:38:40.696Z,9.77
2018-12-22T16:39:40.644Z,9.73
2018-12-22T16:40:40.720Z,9.80
2018-12-22T16:41:40.768Z,9.74
2018-12-22T16:42:40.849Z,9.83
2018-12-22T16:43:40.920Z,9.74
2018-12-22T16:44:40.964Z,9.77
2018-12-22T16:45:41.016Z,9.64
2018-12-22T16:46:41.080Z,9.68
2018-12-22T16:47:41.136Z,9.69
2018-12-22T16:48:41.437Z,9.61
2018-12-22T16:49:41.264Z,9.59
2018-12-22T16:50:41.325Z,9.55
2018-12-22T16:51:41.384Z,9.56
2018-12-22T16:52:41.451Z,9.56
2018-12-22T16:53:41.517Z,9.50
2018-12-22T16:54:41.577Z,9.46
2018-12-22T16:55:41.633Z,9.50
2018-12-22T16:56:41.704Z,9.50
2018-12-22T16:57:41.761Z,9.54
2018-12-22T16:58:41.825Z,9.51
2018-12-22T16:59:41.889Z,9.55
2018-12-22T17:00:41.941Z,9.58
2018-12-22T17:01:42.005Z,9.56
2018-12-22T17:02:42.066Z,9.55
2018-12-22T17:03:42.233Z,9.62
2018-12-22T17:04:42.190Z,9.56
2018-12-22T17:05:42.253Z,9.51
2018-12-22T17:06:42.314Z,9.54
2018-12-22T17:07:42.373Z,9.50
2018-12-22T17:08:42.446Z,9.47
2018-12-22T17:09:42.506Z,9.47
2018-12-22T17:10:42.561Z,9.48
2018-12-22T17:11:42.622Z,9.46
2018-12-22T17:12:42.689Z,9.36
2018-12-22T17:13:42.754Z,9.32
2018-12-22T17:14:42.818Z,9.32
2018-12-22T17:15:42.870Z,9.19
2018-12-22T17:16:42.938Z,9.34
2018-12-22T17:17:42.994Z,9.22
2018-12-22T17:18:43.067Z,9.08
2018-12-22T17:19:43.126Z,9.14
2018-12-22T17:20:43.183Z,9.16
2018-12-22T17:21:43.243Z,9.04
2018-12-22T17:22:43.306Z,8.89
2018-12-22T17:23:43.375Z,8.97
2018-12-22T17:24:43.439Z,8.92
2018-12-22T17:25:43.491Z,8.85
2018-12-22T17:26:43.551Z,8.85
2018-12-22T17:27:43.618Z,8.84
2018-12-22T17:28:43.683Z,8.74
2018-12-22T17:29:43.747Z,8.79
2018-12-22T17:30:43.803Z,8.70
2018-12-22T17:31:43.863Z,8.67
2018-12-22T17:32:43.928Z,8.73
2018-12-22T17:33:43.995Z,8.70
2018-12-22T17:34:44.056Z,8.69
2018-12-22T17:35:44.111Z,8.69
2018-12-22T17:36:44.171Z,8.64
2018-12-22T17:37:44.235Z,8.66
2018-12-22T17:38:44.295Z,8.64
2018-12-22T17:39:44.543Z,8.64
2018-12-22T17:40:44.419Z,8.64
2018-12-22T17:41:44.485Z,8.70
2018-12-22T17:42:44.544Z,8.74
2018-12-22T17:43:44.607Z,8.73
2018-12-22T17:44:44.675Z,8.70
2018-12-22T17:45:44.736Z,8.74
2018-12-22T17:46:44.794Z,8.73
2018-12-22T17:47:44.852Z,8.70
2018-12-22T17:48:44.920Z,8.79
2018-12-22T17:49:44.984Z,8.73
2018-12-22T17:50:45.048Z,8.76
2018-12-22T17:51:45.100Z,8.74
2018-12-22T17:52:45.160Z,8.81
2018-12-22T17:53:45.228Z,8.74
2018-12-22T17:54:45.393Z,8.79
2018-12-22T17:55:45.348Z,8.79
2018-12-22T17:56:45.409Z,8.81
2018-12-22T17:57:45.474Z,8.78
2018-12-22T17:58:45.539Z,8.73
2018-12-22T17:59:45.608Z,8.73
2018-12-22T18:00:45.665Z,8.69
2018-12-22T18:01:45.717Z,8.71
2018-12-22T18:02:45.782Z,8.70
2018-12-22T18:03:45.845Z,8.70
2018-12-22T18:04:45.913Z,8.71
2018-12-22T18:05:45.973Z,8.74
2018-12-22T18:06:46.026Z,8.71
2018-12-22T18:07:46.089Z,8.76
2018-12-22T18:08:46.150Z,8.78
2018-12-22T18:09:46.213Z,8.73
2018-12-22T18:10:46.369Z,8.74
2018-12-22T18:11:46.337Z,8.74
2018-12-22T18:12:46.397Z,8.71
2018-12-22T18:13:46.458Z,8.78
2018-12-22T18:14:46.518Z,8.73
2018-12-22T18:15:46.590Z,8.71
2018-12-22T18:16:46.656Z,8.74
2018-12-22T18:17:46.709Z,8.73
2018-12-22T18:18:46.766Z,8.76
2018-12-22T18:19:46.826Z,8.81
2018-12-22T18:20:46.898Z,8.82
2018-12-22T18:21:47.011Z,8.84
2018-12-22T18:22:47.014Z,8.89
2018-12-22T18:23:47.074Z,8.88
2018-12-22T18:24:47.145Z,8.87
2018-12-22T18:25:47.246Z,8.99
2018-12-22T18:26:47.258Z,8.88
2018-12-22T18:27:47.322Z,8.88
2018-12-22T18:28:47.382Z,8.88
2018-12-22T18:29:47.443Z,8.81
2018-12-22T18:30:47.511Z,8.82
2018-12-22T18:31:47.575Z,8.81
2018-12-22T18:32:47.731Z,8.85
2018-12-22T18:33:47.690Z,8.79
2018-12-22T18:34:47.750Z,8.84
2018-12-22T18:35:47.819Z,8.79
2018-12-22T18:36:47.887Z,8.85
2018-12-22T18:37:47.936Z,8.76
2018-12-22T18:38:47.995Z,8.79
2018-12-22T18:39:48.059Z,8.81
2018-12-22T18:40:48.247Z,8.79
2018-12-22T18:41:48.183Z,8.78
2018-12-22T18:42:48.246Z,8.71
2018-12-22T18:43:48.307Z,8.74
2018-12-22T18:44:48.374Z,8.73
2018-12-22T18:45:48.439Z,8.71
2018-12-22T18:46:48.495Z,8.73
2018-12-22T18:47:48.547Z,8.74
2018-12-22T18:48:48.616Z,8.79
2018-12-22T18:49:48.671Z,8.78
2018-12-22T18:50:48.743Z,8.71
2018-12-22T18:51:48.806Z,8.70
2018-12-22T18:52:48.856Z,8.81
2018-12-22T18:53:48.919Z,8.78
2018-12-22T18:54:48.983Z,8.78
2018-12-22T18:55:49.047Z,8.74
2018-12-22T18:56:49.107Z,8.76
2018-12-22T18:57:49.164Z,8.71
2018-12-22T18:58:49.227Z,8.81
2018-12-22T18:59:49.284Z,8.82
2018-12-22T19:00:49.364Z,8.91
2018-12-22T19:01:49.408Z,8.95
2018-12-22T19:02:49.468Z,8.95
2018-12-22T19:03:49.532Z,8.95
2018-12-22T19:04:49.592Z,9.10
2018-12-22T19:05:49.664Z,9.10
2018-12-22T19:06:49.720Z,9.11
2018-12-22T19:07:49.776Z,9.19
2018-12-22T19:08:49.836Z,9.23
2018-12-22T19:09:49.900Z,9.23
2018-12-22T19:10:49.968Z,9.32
2018-12-22T19:11:50.032Z,9.31
2018-12-22T19:12:50.084Z,9.29
2018-12-22T19:13:50.145Z,9.34
2018-12-22T19:14:50.205Z,9.29
2018-12-22T19:15:50.377Z,9.36
2018-12-22T19:16:50.339Z,9.29
2018-12-22T19:17:50.391Z,9.23
2018-12-22T19:18:50.453Z,9.23
2018-12-22T19:19:50.517Z,9.23
2018-12-22T19:20:50.589Z,9.16
2018-12-22T19:21:50.645Z,9.11
2018-12-22T19:22:50.697Z,9.10
2018-12-22T19:23:50.757Z,9.16
2018-12-22T19:24:50.821Z,9.08
2018-12-22T19:25:50.889Z,9.00
2018-12-22T19:26:50.949Z,8.95
2018-12-22T19:27:51.005Z,8.95
2018-12-22T19:28:51.065Z,8.84
2018-12-22T19:29:51.126Z,8.91
2018-12-22T19:30:51.281Z,8.85
2018-12-22T19:31:51.249Z,8.87
2018-12-22T19:32:51.310Z,8.74
2018-12-22T19:33:53.640Z,8.78
2018-12-22T19:34:51.433Z,8.70
2018-12-22T19:35:51.508Z,8.82
2018-12-22T19:36:51.566Z,8.73
2018-12-22T19:37:51.617Z,8.76
2018-12-22T19:38:51.678Z,8.76
2018-12-22T19:39:51.742Z,8.70
2018-12-22T19:40:51.810Z,8.74
2018-12-22T19:41:51.872Z,8.71
2018-12-22T19:42:51.924Z,8.67
2018-12-22T19:43:51.986Z,8.64
2018-12-22T19:44:52.046Z,8.61
2018-12-22T19:45:52.134Z,8.51
2018-12-22T19:46:52.170Z,8.52
2018-12-22T19:47:52.230Z,8.51
2018-12-22T19:48:52.294Z,8.45
2018-12-22T19:49:52.356Z,8.45
2018-12-22T19:50:52.422Z,8.31
2018-12-22T19:51:52.482Z,8.36
2018-12-22T19:52:52.538Z,8.28
2018-12-22T19:53:52.598Z,8.28
2018-12-22T19:54:52.658Z,8.26
2018-12-22T19:55:52.733Z,8.24
2018-12-22T19:56:52.791Z,8.18
2018-12-22T19:57:52.850Z,8.16
2018-12-22T19:58:52.906Z,8.08
2018-12-22T19:59:52.967Z,8.15
2018-12-22T20:00:53.035Z,8.08
2018-12-22T20:01:53.098Z,8.01
2018-12-22T20:02:53.146Z,8.16
2018-12-22T20:04:01.879Z,8.18
2018-12-22T20:04:53.282Z,8.15
2018-12-22T20:05:53.347Z,8.12
2018-12-22T20:06:53.403Z,8.13
2018-12-22T20:07:53.454Z,8.12
2018-12-22T20:08:53.519Z,8.18
2018-12-22T20:09:53.580Z,8.20
2018-12-22T20:10:53.647Z,8.34
2018-12-22T20:11:53.711Z,8.28
2018-12-22T20:12:53.762Z,8.44
2018-12-22T20:13:53.824Z,8.46
2018-12-22T20:14:53.886Z,8.49
2018-12-22T20:15:53.955Z,8.49
2018-12-22T20:16:54.011Z,8.45
2018-12-22T20:17:54.068Z,8.58
2018-12-22T20:18:54.128Z,8.51
2018-12-22T20:19:54.191Z,8.63
2018-12-22T20:20:54.343Z,8.63
2018-12-22T20:21:54.341Z,8.64
2018-12-22T20:22:54.371Z,8.73
2018-12-22T20:23:54.503Z,8.64
2018-12-22T20:24:54.497Z,8.66
2018-12-22T20:25:54.568Z,8.63
2018-12-22T20:26:54.628Z,8.60
2018-12-22T20:27:54.679Z,8.66
2018-12-22T20:28:54.744Z,8.69
2018-12-22T20:29:54.804Z,8.66
2018-12-22T20:30:54.871Z,8.61
2018-12-22T20:31:54.934Z,8.66
2018-12-22T20:32:56.346Z,8.56
2018-12-22T20:33:55.048Z,8.61
2018-12-22T20:34:55.108Z,8.63
2018-12-22T20:35:55.223Z,8.63
2018-12-22T20:36:55.233Z,8.70
2018-12-22T20:37:55.292Z,8.69
2018-12-22T20:38:55.352Z,8.67
2018-12-22T20:39:55.416Z,8.79
2018-12-22T20:40:55.484Z,8.79
2018-12-22T20:41:55.545Z,8.79
2018-12-22T20:42:55.608Z,8.82
2018-12-22T20:43:55.660Z,8.76
2018-12-22T20:44:55.720Z,8.84
2018-12-22T20:45:55.788Z,8.85
2018-12-22T20:46:55.848Z,8.91
2018-12-22T20:47:55.907Z,8.99
2018-12-22T20:48:55.964Z,9.03
2018-12-22T20:49:56.024Z,9.13
2018-12-22T20:50:56.420Z,9.06
2018-12-22T20:51:56.188Z,9.14
2018-12-22T20:52:56.208Z,9.16
2018-12-22T20:53:56.282Z,9.18
2018-12-22T20:54:56.333Z,9.11
2018-12-22T20:55:56.393Z,9.14
2018-12-22T20:56:56.560Z,9.06
2018-12-22T20:57:56.513Z,9.13
2018-12-22T20:58:56.573Z,9.18
2018-12-22T20:59:56.637Z,9.28
2018-12-22T21:00:56.697Z,9.26
2018-12-22T21:01:56.765Z,9.21
2018-12-22T21:02:56.825Z,9.23
2018-12-22T21:03:56.881Z,9.23
2018-12-22T21:04:56.941Z,9.23
2018-12-22T21:05:57.001Z,9.29
2018-12-22T21:06:57.280Z,9.22
2018-12-22T21:07:57.126Z,9.28
2018-12-22T21:08:57.186Z,9.23
2018-12-22T21:09:57.246Z,9.21
2018-12-22T21:10:57.306Z,9.26
2018-12-22T21:11:57.378Z,9.10
2018-12-22T21:12:57.438Z,9.13
2018-12-22T21:13:57.490Z,9.16
2018-12-22T21:14:57.550Z,9.04
2018-12-22T21:15:57.618Z,8.97
2018-12-22T21:16:57.682Z,8.92
2018-12-22T21:17:57.742Z,8.97
2018-12-22T21:18:57.794Z,8.97
2018-12-22T21:19:57.859Z,8.92
2018-12-22T21:20:57.917Z,8.92
2018-12-22T21:21:57.987Z,8.89
2018-12-22T21:22:58.053Z,8.91
2018-12-22T21:23:58.102Z,8.95
2018-12-22T21:24:58.163Z,8.99
2018-12-22T21:25:58.226Z,8.91
2018-12-22T21:26:58.287Z,8.91
2018-12-22T21:27:58.366Z,8.95
2018-12-22T21:28:58.407Z,8.92
2018-12-22T21:29:58.467Z,8.87
2018-12-22T21:30:58.527Z,8.84
2018-12-22T21:31:58.587Z,8.76
2018-12-22T21:32:58.659Z,8.85
2018-12-22T21:33:58.723Z,8.88
2018-12-22T21:34:58.770Z,8.87
2018-12-22T21:35:58.831Z,8.81
2018-12-22T21:36:58.897Z,8.85
2018-12-22T21:37:58.963Z,8.73
2018-12-22T21:38:59.025Z,8.76
2018-12-22T21:39:59.075Z,8.73
2018-12-22T21:40:59.136Z,8.66
2018-12-22T21:41:59.199Z,8.70
2018-12-22T21:42:59.262Z,8.76
2018-12-22T21:43:59.363Z,8.69
2018-12-22T21:44:59.380Z,8.63
2018-12-22T21:45:59.441Z,8.63
2018-12-22T21:46:59.499Z,8.52
2018-12-22T21:47:59.564Z,8.58
2018-12-22T21:48:59.634Z,8.60
2018-12-22T21:49:59.696Z,8.60
2018-12-22T21:50:59.746Z,8.61
2018-12-22T21:51:59.807Z,8.64
2018-12-22T21:52:59.868Z,8.61
2018-12-22T21:53:59.937Z,8.51
2018-12-22T21:54:59.998Z,8.52
2018-12-22T21:56:00.044Z,8.49
2018-12-22T21:57:00.108Z,8.51
2018-12-22T21:58:00.173Z,8.46
2018-12-22T21:59:00.233Z,8.46
2018-12-22T22:00:00.381Z,8.41
2018-12-22T22:01:00.359Z,8.48
2018-12-22T22:02:00.417Z,8.42
2018-12-22T22:03:00.474Z,8.46
2018-12-22T22:04:00.549Z,8.48
2018-12-22T22:05:00.613Z,8.46
2018-12-22T22:06:00.667Z,8.45
2018-12-22T22:07:00.717Z,8.52
2018-12-22T22:08:00.785Z,8.48
2018-12-22T22:09:00.841Z,8.46
2018-12-22T22:10:00.909Z,8.46
2018-12-22T22:11:00.969Z,8.42
2018-12-22T22:12:01.021Z,8.46
2018-12-22T22:13:01.089Z,8.45
2018-12-22T22:14:01.150Z,8.48
2018-12-22T22:15:01.205Z,8.42
2018-12-22T22:16:01.314Z,8.46
2018-12-22T22:17:01.321Z,8.46
2018-12-22T22:18:01.389Z,8.45
2018-12-22T22:19:01.448Z,8.42
2018-12-22T22:20:01.511Z,8.45
2018-12-22T22:21:01.578Z,8.36
2018-12-22T22:22:01.638Z,8.37
2018-12-22T22:23:01.692Z,8.44
2018-12-22T22:24:01.751Z,8.37
2018-12-22T22:25:01.811Z,8.44
2018-12-22T22:26:01.882Z,8.33
2018-12-22T22:27:01.945Z,8.41
2018-12-22T22:28:01.996Z,8.34
2018-12-22T22:29:02.054Z,8.31
2018-12-22T22:30:02.139Z,8.30
2018-12-22T22:31:02.271Z,8.30
2018-12-22T22:32:02.238Z,8.31
2018-12-22T22:33:02.302Z,8.38
2018-12-22T22:34:02.355Z,8.36
2018-12-22T22:35:02.422Z,8.37
2018-12-22T22:36:02.495Z,8.41
2018-12-22T22:37:02.552Z,8.42
2018-12-22T22:38:02.603Z,8.44
2018-12-22T22:39:02.665Z,8.45
2018-12-22T22:40:02.724Z,8.42
2018-12-22T22:41:02.792Z,8.51
2018-12-22T22:42:02.861Z,8.55
2018-12-22T22:43:02.905Z,8.51
2018-12-22T22:44:02.967Z,8.61
